Latest Weather Observations for Carnarvon

IDW60801

Issued at 6:05 pm WST Saturday 30 August 2014 (issued every 30 minutes, with the page automatically refreshed every 10 minutes)

About weather observations | Map of weather stations | Latest weather observations for WA | Other Formats
Station Details ID: 006011 Name: CARNARVON AIRPORT Lat: -24.89 Lon: 113.67 Height: 4.0 m
Data from the previous 72 hours. | See also: Recent months at Carnarvon
Date/Time
WST
Temp
°C
App
Temp
°C
Dew
Point
Rel
Hum
%
Delta-T
°C
Wind Press
QNH
hPa
Press
MSL
hPa
Rain
since 9 am
mm
Dir
 
Spd
km/h
Gust
km/h
Spd
kts
Gust
kts
30/06:00pm 22.3 20.8 15.4 65 4.1 SW 17 20 9 11 1017.9 1017.9 0.2
30/05:30pm 23.2 20.6 13.7 55 5.5 SSW 20 24 11 13 1017.7 - 0.2
30/05:00pm 24.6 20.9 10.0 39 8.0 SSW 20 24 11 13 1017.6 - 0.2
30/04:30pm 24.9 21.6 11.0 41 7.8 SSW 19 24 10 13 1017.4 - 0.2
30/04:00pm 25.0 21.9 12.2 44 7.3 SSW 20 24 11 13 1017.3 - 0.2
30/03:30pm 25.6 22.7 12.2 43 7.7 SSW 19 22 10 12 1017.1 - 0.2
30/03:00pm 25.9 23.5 12.6 43 7.7 SSW 17 20 9 11 1017.2 1017.2 0.2
30/02:30pm 25.1 23.4 15.7 56 5.7 SSW 19 22 10 12 1017.4 - 0.2
30/02:00pm 25.3 23.4 15.1 53 6.1 SW 19 22 10 12 1017.4 - 0.2
30/01:30pm 26.0 24.5 13.1 44 7.5 WSW 13 17 7 9 1017.7 - 0.2
30/01:00pm 26.0 24.2 12.0 41 8.0 WSW 13 17 7 9 1017.9 - 0.2
30/12:30pm 25.9 24.1 13.2 45 7.4 WSW 15 19 8 10 1018.2 - 0.2
30/12:00pm 26.2 24.7 13.2 44 7.6 WSW 13 17 7 9 1018.7 1018.7 0.2
30/11:30am 25.5 24.4 11.8 42 7.8 SSW 9 13 5 7 1019.0 - 0.2
30/11:00am 25.2 24.3 12.5 45 7.3 SSW 9 15 5 8 1019.3 - 0.2
30/10:30am 24.3 23.8 13.7 51 6.2 SSE 9 15 5 8 1019.4 - 0.2
30/10:00am 23.7 23.7 15.1 58 5.1 ESE 9 13 5 7 1019.5 - 0.0
30/09:30am 22.6 22.9 17.0 70 3.4 ENE 11 17 6 9 1019.5 - 0.0
30/09:00am 21.1 21.0 17.0 77 2.5 E 13 17 7 9 1019.5 1019.5 0.0
30/08:30am 19.7 19.5 16.7 83 1.8 ENE 13 15 7 8 1019.3 - 0.0
30/08:00am 18.2 18.5 16.9 92 0.8 ENE 11 15 6 8 1019.1 - 0.0
30/07:30am 16.4 16.7 15.9 97 0.3 ENE 9 11 5 6 1018.8 - 0.0
30/07:11am 15.4 15.0 15.1 98 0.2 ENE 11 13 6 7 1018.6 - 0.0
30/07:10am 15.3 14.8 15.0 98 0.2 ENE 11 13 6 7 1018.6 - 0.0
30/07:00am 14.7 14.4 14.3 97 0.2 ENE 9 11 5 6 1018.5 - 0.0
30/06:30am 14.3 13.9 14.1 99 0.1 E 9 9 5 5 1018.2 - 0.0
30/06:00am 14.5 14.2 14.3 99 0.1 E 9 11 5 6 1017.8 1017.8 0.0
30/05:30am 13.3 12.6 13.1 99 0.1 ENE 9 11 5 6 1017.6 - 0.0
30/05:00am 13.4 13.1 13.2 99 0.1 ENE 7 9 4 5 1017.5 - 0.0
30/04:52am 13.1 12.2 12.7 97 0.2 ENE 9 11 5 6 1017.4 - 0.0
30/04:35am 14.1 13.6 13.9 99 0.1 NE 9 11 5 6 1017.4 - 0.0
30/04:30am 14.5 14.1 14.1 97 0.2 NE 9 11 5 6 1017.4 - 0.0
30/04:00am 14.2 14.1 13.8 97 0.2 NE 7 9 4 5 1017.5 - 0.0
30/03:48am 15.0 15.3 14.6 97 0.2 ENE 6 9 3 5 1017.5 - 0.0
30/03:30am 15.3 15.5 14.6 96 0.4 E 7 9 4 5 1017.6 - 0.0
30/03:27am 15.3 15.5 14.6 96 0.4 E 7 9 4 5 1017.6 - 0.0
30/03:10am 15.8 16.1 15.1 96 0.4 E 7 9 4 5 1017.6 - 0.0
30/03:00am 15.9 15.8 15.0 94 0.5 E 9 11 5 6 1017.7 1017.7 0.0
30/02:30am 16.6 16.8 15.7 94 0.5 ESE 9 9 5 5 1017.7 - 0.0
30/02:24am 16.8 17.1 15.9 94 0.5 ESE 9 11 5 6 1017.7 - 0.0
30/02:00am 17.9 18.3 16.4 91 0.9 ESE 9 11 5 6 1017.8 - 0.0
30/01:30am 20.3 20.7 18.2 88 1.3 S 13 17 7 9 1018.0 - 0.0
30/01:00am 20.8 20.8 18.9 89 1.2 SSW 17 22 9 12 1018.0 - 0.0
30/12:46am 20.8 20.8 18.9 89 1.2 SSW 17 24 9 13 1018.0 - 0.0
30/12:30am 20.9 20.9 19.0 89 1.2 SSW 17 20 9 11 1018.0 - 0.0
30/12:26am 20.9 20.9 19.0 89 1.2 SSW 17 24 9 13 1018.0 - 0.0
30/12:00am 21.0 20.5 19.1 89 1.2 SSW 20 26 11 14 1018.0 1018.0 0.0
 
Date/Time
WST
Temp
°C
App
Temp
°C
Dew
Point
Rel
Hum
%
Delta-T
°C
Wind Press
QNH
hPa
Press
MSL
hPa
Rain
since 9 am
mm
Dir
 
Spd
km/h
Gust
km/h
Spd
kts
Gust
kts
29/11:30pm 20.6 21.1 19.2 92 0.9 SW 15 19 8 10 1018.0 - 0.0
29/11:00pm 20.7 21.1 18.9 89 1.1 SW 15 20 8 11 1018.1 - 0.0
29/10:30pm 20.8 21.2 18.9 89 1.2 SW 15 19 8 10 1018.1 - 0.0
29/10:00pm 20.8 20.6 18.4 86 1.5 SW 17 20 9 11 1018.2 - 0.0
29/09:30pm 20.9 20.5 18.0 83 1.8 SW 17 20 9 11 1018.3 - 0.0
29/09:00pm 21.2 20.6 17.6 80 2.2 SW 17 24 9 13 1018.2 1018.2 0.0
29/08:30pm 21.5 21.0 17.9 80 2.2 SW 17 24 9 13 1018.0 - 0.0
29/08:00pm 21.6 20.7 17.7 78 2.4 WSW 19 24 10 13 1017.9 - 0.0
29/07:30pm 21.9 21.4 17.7 77 2.6 SW 17 24 9 13 1017.6 - 0.0
29/07:00pm 22.0 20.6 14.5 62 4.4 SW 15 20 8 11 1017.4 - 0.0
29/06:30pm 22.7 20.9 14.5 60 4.8 SW 17 22 9 12 1016.9 - 0.0
29/06:00pm 23.9 21.4 11.2 44 7.1 SW 15 19 8 10 1016.7 1016.7 0.0
29/05:30pm 24.9 21.3 10.0 39 8.2 WSW 19 26 10 14 1016.5 - 0.0
29/05:00pm 25.3 22.1 11.1 41 8.0 SW 19 24 10 13 1016.4 - 0.0
29/04:30pm 26.5 21.9 6.6 28 10.4 SW 20 26 11 14 1016.3 - 0.0
29/04:00pm 26.9 22.3 5.8 26 10.9 SW 19 24 10 13 1016.3 - 0.0
29/03:30pm 27.8 22.7 4.0 21 12.0 SW 20 26 11 14 1016.2 - 0.0
29/03:00pm 27.8 22.2 1.4 18 12.7 SW 20 26 11 14 1016.3 1016.3 0.0
29/02:30pm 28.0 22.8 2.6 19 12.5 WSW 19 24 10 13 1016.5 - 0.0
29/02:00pm 27.5 21.6 -2.4 14 13.4 WSW 19 22 10 12 1016.7 - 0.0
29/01:30pm 27.5 21.6 -2.4 14 13.4 WSW 19 22 10 12 1017.0 - 0.0
29/01:00pm 28.0 22.8 -0.2 16 13.2 WSW 17 20 9 11 1017.3 - 0.0
29/12:30pm 27.9 23.7 3.8 21 12.1 W 15 19 8 10 1017.7 - 0.0
29/12:00pm 29.0 24.6 0.5 16 13.6 SW 13 15 7 8 1017.9 1017.9 0.0
29/11:30am 28.8 25.7 0.4 16 13.5 SSE 6 11 3 6 1018.3 - 0.0
29/11:00am 28.0 24.7 2.2 19 12.6 ENE 9 13 5 7 1018.6 - 0.0
29/10:30am 26.7 23.4 4.8 24 11.1 E 11 20 6 11 1018.9 - 0.0
29/10:00am 25.6 22.1 7.4 31 9.6 E 15 20 8 11 1019.1 - 0.0
29/09:30am 23.3 21.4 11.7 48 6.5 NE 13 17 7 9 1019.2 - 0.0
29/09:00am 21.4 19.0 12.5 57 5.0 NE 17 20 9 11 1019.1 1019.1 0.0
29/08:30am 19.3 17.3 13.9 71 3.1 NE 17 20 9 11 1018.9 - 0.0
29/08:00am 16.9 15.9 14.6 86 1.3 ENE 13 19 7 10 1018.4 - 0.0
29/07:30am 15.0 14.8 14.6 97 0.2 ENE 9 13 5 7 1018.0 - 0.0
29/07:00am 13.2 12.4 13.0 99 0.1 ENE 9 11 5 6 1017.6 - 0.0
29/06:51am 13.2 12.1 13.0 99 0.1 E 11 15 6 8 1017.5 - 0.0
29/06:30am 12.0 10.0 11.6 97 0.2 E 13 15 7 8 1017.4 - 0.0
29/06:15am 11.4 10.5 11.2 99 0.1 E 7 9 4 5 1017.3 - 0.0
29/06:00am 11.9 11.1 11.7 99 0.1 ESE 7 9 4 5 1017.1 1017.1 0.0
29/05:30am 12.0 10.4 11.6 97 0.2 ESE 11 13 6 7 1017.0 - 0.0
29/05:00am 12.3 11.2 12.1 99 0.1 ESE 9 11 5 6 1017.0 - 0.0
29/04:30am 13.0 12.5 12.8 99 0.1 ESE 7 9 4 5 1017.0 - 0.0
29/04:00am 13.2 12.4 12.8 97 0.2 ESE 9 11 5 6 1017.0 - 0.0
29/03:30am 13.5 12.7 13.0 97 0.3 ESE 9 11 5 6 1017.0 - 0.0
29/03:00am 13.5 12.7 13.0 97 0.3 SE 9 11 5 6 1017.1 1017.1 0.0
29/02:30am 15.0 14.7 14.5 97 0.3 SSE 9 11 5 6 1017.2 - 0.0
29/02:00am 15.6 15.6 15.3 98 0.2 SSE 9 11 5 6 1017.4 - 0.0
29/01:30am 15.6 15.2 15.1 97 0.3 SE 11 13 6 7 1017.5 - 0.0
29/01:22am 15.8 15.4 15.3 97 0.3 SE 11 13 6 7 1017.5 - 0.0
29/01:00am 15.9 15.3 14.7 93 0.7 SE 11 13 6 7 1017.5 - 0.0
29/12:30am 19.0 19.0 17.2 89 1.1 S 13 19 7 10 1017.4 - 0.0
29/12:00am 20.5 21.1 18.6 89 1.2 S 13 19 7 10 1017.3 1017.3 0.0
 
Date/Time
WST
Temp
°C
App
Temp
°C
Dew
Point
Rel
Hum
%
Delta-T
°C
Wind Press
QNH
hPa
Press
MSL
hPa
Rain
since 9 am
mm
Dir
 
Spd
km/h
Gust
km/h
Spd
kts
Gust
kts
28/11:30pm 20.7 20.9 18.6 88 1.3 S 15 17 8 9 1017.4 - 0.0
28/11:00pm 20.9 21.2 18.8 88 1.3 S 15 19 8 10 1017.5 - 0.0
28/10:30pm 20.9 21.6 18.8 88 1.3 SSW 13 17 7 9 1017.6 - 0.0
28/10:00pm 20.4 20.8 18.1 87 1.4 SSW 13 17 7 9 1017.5 - 0.0
28/09:43pm 20.5 21.2 17.9 85 1.6 SW 11 15 6 8 1017.5 - 0.0
28/09:30pm 20.9 21.4 18.3 85 1.6 SW 13 15 7 8 1017.4 - 0.0
28/09:23pm 21.0 21.5 18.3 84 1.7 SW 13 15 7 8 1017.4 - 0.0
28/09:00pm 20.9 21.2 18.0 83 1.8 SW 13 17 7 9 1017.4 1017.4 0.0
28/08:30pm 21.7 22.2 18.3 81 2.1 WSW 13 15 7 8 1017.3 - 0.0
28/08:00pm 22.0 22.0 18.0 78 2.5 W 15 19 8 10 1017.0 - 0.0
28/07:30pm 22.2 22.1 17.8 76 2.7 W 15 19 8 10 1016.9 - 0.0
28/07:00pm 22.6 22.1 16.9 70 3.5 W 15 19 8 10 1016.7 - 0.0
28/06:30pm 23.0 22.2 16.1 65 4.2 WSW 15 19 8 10 1016.3 - 0.0
28/06:00pm 23.7 23.3 17.2 67 4.0 W 15 19 8 10 1016.1 1016.1 0.0
28/05:30pm 25.2 24.4 15.0 53 6.1 WSW 13 17 7 9 1015.8 - 0.0
28/05:00pm 26.7 24.2 11.2 38 8.8 SW 15 20 8 11 1015.5 - 0.0
28/04:30pm 27.3 23.9 9.1 31 10.0 SSW 17 22 9 12 1015.5 - 0.0
28/04:00pm 27.5 23.7 9.7 32 9.9 SSW 20 28 11 15 1015.3 - 0.0
28/03:30pm 27.6 24.1 10.8 35 9.5 SSW 20 24 11 13 1015.4 - 0.0
28/03:00pm 28.1 24.2 9.6 31 10.3 SSW 20 24 11 13 1015.4 1015.4 0.0
28/02:30pm 29.0 23.8 5.6 22 12.2 SSW 22 28 12 15 1015.3 - 0.0
28/02:00pm 29.7 24.2 6.0 22 12.5 SSW 24 30 13 16 1015.5 - 0.0
28/01:30pm 29.1 24.6 7.1 25 11.8 SSW 20 24 11 13 1015.6 - 0.0
28/01:00pm 30.1 25.5 6.4 22 12.6 SSW 20 26 11 14 1016.0 - 0.0
28/12:30pm 28.9 24.6 7.9 26 11.4 SSW 20 24 11 13 1016.4 - 0.0
28/12:00pm 29.6 24.8 4.5 20 12.9 SSW 19 22 10 12 1016.6 1016.6 0.0
28/11:30am 31.1 25.1 -6.8 8 16.2 S 17 24 9 13 1016.9 - 0.0
28/11:00am 30.4 24.2 -4.9 10 15.5 SE 19 24 10 13 1017.3 - 0.0
28/10:30am 29.2 23.3 -2.1 13 14.3 ESE 19 24 10 13 1017.7 - 0.0
28/10:00am 28.3 22.7 0.1 16 13.3 E 19 28 10 15 1017.9 - 0.0
28/09:30am 26.8 21.3 1.9 20 12.0 ESE 20 26 11 14 1018.1 - 0.0
28/09:00am 25.1 20.0 3.1 24 10.7 E 19 22 10 12 1018.2 1018.2 0.0
28/08:30am 23.1 19.8 4.7 30 9.1 E 11 17 6 9 1018.0 - 0.0
28/08:00am 19.3 17.8 8.3 49 5.7 ESE 6 9 3 5 1017.6 - 0.0
28/07:58am 18.8 17.3 8.3 50 5.4 ESE 6 9 3 5 1017.6 - 0.0
28/07:30am 13.7 12.3 9.4 75 2.2 ESE 7 9 4 5 1017.4 - 0.0
28/07:00am 12.7 10.9 8.0 73 2.3 E 7 9 4 5 1017.0 - 0.0
28/06:30am 12.3 9.7 7.8 74 2.2 E 11 13 6 7 1016.8 - 0.0
28/06:00am 12.7 9.9 8.5 75 2.1 ESE 13 15 7 8 1016.5 1016.5 0.0
28/05:30am 12.7 11.0 10.0 84 1.4 ESE 9 11 5 6 1016.5 - 0.0
28/05:00am 12.2 10.5 9.8 85 1.2 ESE 9 11 5 6 1016.4 - 0.0
28/04:30am 13.0 11.5 10.5 85 1.3 SE 9 11 5 6 1016.4 - 0.0
28/04:00am 12.3 10.6 9.9 85 1.2 SE 9 11 5 6 1016.5 - 0.0
28/03:30am 14.1 12.9 11.7 85 1.3 SSE 9 9 5 5 1016.5 - 0.0
28/03:00am 15.6 14.5 12.1 80 1.9 SSE 9 11 5 6 1016.7 1016.7 0.0
28/02:30am 15.5 14.5 12.2 81 1.8 SSE 9 9 5 5 1016.8 - 0.0
28/02:00am 14.9 13.9 12.3 84 1.4 SE 9 9 5 5 1016.7 - 0.0
28/01:30am 15.0 13.5 12.0 82 1.6 ESE 11 13 6 7 1016.9 - 0.0
28/01:00am 15.4 14.5 12.7 84 1.5 E 9 11 5 6 1017.1 - 0.0
28/12:30am 16.1 15.6 12.8 81 1.8 ESE 7 9 4 5 1017.5 - 0.0
28/12:00am 18.6 16.8 13.3 71 3.0 SSE 15 19 8 10 1017.8 1017.8 0.0
 
Date/Time
WST
Temp
°C
App
Temp
°C
Dew
Point
Rel
Hum
%
Delta-T
°C
Wind Press
QNH
hPa
Press
MSL
hPa
Rain
since 9 am
mm
Dir
 
Spd
km/h
Gust
km/h
Spd
kts
Gust
kts
27/11:30pm 19.1 17.2 13.1 68 3.4 SSE 15 19 8 10 1017.8 - 0.0
27/11:00pm 19.5 17.2 13.1 66 3.6 S 17 20 9 11 1017.8 - 0.0
27/10:30pm 20.4 18.3 14.6 69 3.4 S 19 24 10 13 1017.7 - 0.0
27/10:00pm 21.1 19.2 15.7 71 3.2 S 20 24 11 13 1017.7 - 0.0
27/09:30pm 21.6 19.9 16.3 72 3.2 S 20 28 11 15 1017.6 - 0.0
27/09:00pm 22.0 20.5 16.7 72 3.2 S 20 26 11 14 1017.5 1017.5 0.0
27/08:30pm 21.8 21.2 17.6 77 2.6 S 17 22 9 12 1017.3 - 0.0
27/08:00pm 21.9 21.4 17.7 77 2.6 SSW 17 20 9 11 1017.0 - 0.0
27/07:30pm 21.9 21.0 16.8 73 3.1 S 17 22 9 12 1016.4 - 0.0
27/07:00pm 21.9 21.7 16.8 73 3.1 S 13 17 7 9 1016.3 - 0.0
27/06:30pm 22.5 21.5 16.6 69 3.6 SW 17 22 9 12 1016.0 - 0.0

Other Formats:

Comma delimited format used in spreadsheet applications
http://www.bom.gov.au/fwo/IDW60801/IDW60801.94300.axf

JavaScript Object Notation format (JSON) in row-major order
http://www.bom.gov.au/fwo/IDW60801/IDW60801.94300.json